TimeCST,TemperatureF,Dew PointF,Humidity,Sea Level PressureIn,VisibilityMPH,Wind Direction,Wind SpeedMPH,Gust SpeedMPH,PrecipitationIn,Events,Conditions,WindDirDegrees,DateUTC
12:15 AM,44.6,35.6,71,30.07,10.0,NNW,5.8,-,N/A,,Clear,340,2012-11-06 06:15:00
12:35 AM,44.6,37.4,76,30.08,10.0,WNW,4.6,-,N/A,,Clear,290,2012-11-06 06:35:00
12:55 AM,44.6,35.6,71,30.08,10.0,WNW,4.6,-,N/A,,Clear,290,2012-11-06 06:55:00
1:15 AM,42.8,35.6,76,30.07,10.0,NW,3.5,-,N/A,,Clear,320,2012-11-06 07:15:00
1:35 AM,41.0,35.6,81,30.08,10.0,NW,5.8,-,N/A,,Clear,320,2012-11-06 07:35:00
1:55 AM,42.8,35.6,76,30.08,10.0,NW,4.6,-,N/A,,Clear,310,2012-11-06 07:55:00
2:15 AM,42.8,35.6,76,30.08,10.0,NNW,6.9,-,N/A,,Clear,340,2012-11-06 08:15:00
2:35 AM,42.8,35.6,76,30.08,10.0,NW,5.8,-,N/A,,Clear,310,2012-11-06 08:35:00
2:55 AM,42.8,35.6,76,30.08,10.0,WNW,3.5,-,N/A,,Clear,290,2012-11-06 08:55:00
3:15 AM,41.0,35.6,81,30.07,10.0,Calm,Calm,-,N/A,,Clear,0,2012-11-06 09:15:00
3:35 AM,41.0,35.6,81,30.08,10.0,Calm,Calm,-,N/A,,Clear,0,2012-11-06 09:35:00
3:55 AM,39.2,35.6,87,30.08,10.0,Calm,Calm,-,N/A,,Clear,0,2012-11-06 09:55:00
4:15 AM,39.2,35.6,87,30.07,10.0,NW,5.8,-,N/A,,Clear,320,2012-11-06 10:15:00
4:35 AM,41.0,35.6,81,30.08,10.0,West,3.5,-,N/A,,Clear,280,2012-11-06 10:35:00
4:55 AM,39.2,35.6,87,30.09,10.0,Calm,Calm,-,N/A,,Clear,0,2012-11-06 10:55:00
5:15 AM,39.2,35.6,87,30.10,10.0,NNW,3.5,-,N/A,,Clear,330,2012-11-06 11:15:00
5:35 AM,41.0,35.6,81,30.10,10.0,WNW,3.5,-,N/A,,Clear,300,2012-11-06 11:35:00
5:55 AM,41.0,35.6,81,30.10,10.0,WNW,3.5,-,N/A,,Clear,300,2012-11-06 11:55:00
6:15 AM,39.2,35.6,87,30.11,10.0,NW,3.5,-,N/A,,Clear,320,2012-11-06 12:15:00
6:35 AM,39.2,35.6,87,30.11,10.0,WNW,3.5,-,N/A,,Clear,300,2012-11-06 12:35:00
6:55 AM,39.2,35.6,87,30.11,10.0,Calm,Calm,-,N/A,,Clear,0,2012-11-06 12:55:00
7:15 AM,39.2,35.6,87,30.12,10.0,WNW,4.6,-,N/A,,Clear,300,2012-11-06 13:15:00
7:35 AM,41.0,37.4,87,30.12,10.0,Calm,Calm,-,N/A,,Clear,0,2012-11-06 13:35:00
7:55 AM,44.6,37.4,76,30.13,10.0,NW,4.6,-,N/A,,Clear,310,2012-11-06 13:55:00
8:15 AM,46.4,39.2,76,30.15,10.0,NW,6.9,-,N/A,,Clear,310,2012-11-06 14:15:00
8:35 AM,48.2,39.2,71,30.15,10.0,NW,5.8,-,N/A,,Clear,320,2012-11-06 14:35:00
8:55 AM,50.0,39.2,66,30.15,10.0,NW,6.9,-,N/A,,Clear,310,2012-11-06 14:55:00
9:15 AM,51.8,39.2,62,30.16,10.0,NNW,6.9,-,N/A,,Clear,340,2012-11-06 15:15:00
9:35 AM,53.6,39.2,58,30.16,10.0,NNE,8.1,-,N/A,,Clear,30,2012-11-06 15:35:00
9:55 AM,53.6,39.2,58,30.16,10.0,North,5.8,-,N/A,,Clear,360,2012-11-06 15:55:00
10:15 AM,55.4,39.2,54,30.15,10.0,NNW,6.9,-,N/A,,Clear,340,2012-11-06 16:15:00
10:35 AM,57.2,37.4,48,30.15,10.0,NW,6.9,-,N/A,,Clear,310,2012-11-06 16:35:00
10:55 AM,59.0,37.4,45,30.13,10.0,NNW,5.8,-,N/A,,Clear,340,2012-11-06 16:55:00
11:15 AM,60.8,37.4,42,30.12,10.0,North,6.9,-,N/A,,Clear,350,2012-11-06 17:15:00
11:35 AM,62.6,37.4,39,30.12,10.0,Calm,Calm,-,N/A,,Clear,0,2012-11-06 17:35:00
11:55 AM,64.4,37.4,37,30.10,10.0,West,3.5,-,N/A,,Clear,260,2012-11-06 17:55:00
12:15 PM,64.4,35.6,34,30.10,10.0,West,4.6,-,N/A,,Clear,280,2012-11-06 18:15:00
12:35 PM,66.2,35.6,32,30.09,10.0,WNW,9.2,-,N/A,,Clear,300,2012-11-06 18:35:00
12:55 PM,66.2,35.6,32,30.08,10.0,West,3.5,-,N/A,,Clear,270,2012-11-06 18:55:00
1:15 PM,68.0,33.8,28,30.07,10.0,NW,6.9,-,N/A,,Clear,320,2012-11-06 19:15:00
1:35 PM,68.0,33.8,28,30.06,10.0,West,9.2,-,N/A,,Clear,270,2012-11-06 19:35:00
1:55 PM,68.0,33.8,28,30.04,10.0,WSW,6.9,-,N/A,,Clear,240,2012-11-06 19:55:00
2:15 PM,68.0,35.6,30,30.03,10.0,SW,12.7,-,N/A,,Clear,230,2012-11-06 20:15:00
2:35 PM,68.0,35.6,30,30.05,10.0,West,8.1,-,N/A,,Clear,270,2012-11-06 20:35:00
2:55 PM,68.0,35.6,30,30.04,10.0,West,9.2,-,N/A,,Clear,270,2012-11-06 20:55:00
3:15 PM,68.0,35.6,30,30.04,10.0,West,10.4,-,N/A,,Clear,260,2012-11-06 21:15:00
3:35 PM,68.0,35.6,30,30.04,10.0,West,6.9,-,N/A,,Clear,280,2012-11-06 21:35:00
3:55 PM,68.0,35.6,30,30.04,10.0,West,10.4,-,N/A,,Clear,260,2012-11-06 21:55:00
4:15 PM,68.0,35.6,30,30.04,10.0,West,10.4,-,N/A,,Clear,270,2012-11-06 22:15:00
4:35 PM,66.2,35.6,32,30.04,10.0,West,8.1,-,N/A,,Clear,270,2012-11-06 22:35:00
4:55 PM,66.2,35.6,32,30.04,10.0,West,6.9,-,N/A,,Clear,270,2012-11-06 22:55:00
5:35 PM,60.8,35.6,39,30.04,10.0,West,3.5,-,N/A,,Clear,270,2012-11-06 23:35:00
5:55 PM,60.8,35.6,39,30.05,10.0,West,4.6,-,N/A,,Clear,260,2012-11-06 23:55:00
6:15 PM,59.0,35.6,42,30.06,10.0,West,4.6,-,N/A,,Clear,270,2012-11-07 00:15:00
6:35 PM,57.2,37.4,48,30.06,10.0,Calm,Calm,-,N/A,,Clear,0,2012-11-07 00:35:00
6:55 PM,55.4,37.4,51,30.06,10.0,Calm,Calm,-,N/A,,Clear,0,2012-11-07 00:55:00
7:15 PM,55.4,37.4,51,30.06,10.0,WNW,5.8,-,N/A,,Clear,290,2012-11-07 01:15:00
7:35 PM,55.4,35.6,47,30.06,10.0,SW,3.5,-,N/A,,Clear,230,2012-11-07 01:35:00
7:55 PM,53.6,37.4,54,30.07,10.0,Calm,Calm,-,N/A,,Clear,0,2012-11-07 01:55:00
8:15 PM,53.6,37.4,54,30.07,10.0,Calm,Calm,-,N/A,,Clear,0,2012-11-07 02:15:00
8:35 PM,51.8,37.4,58,30.07,10.0,Calm,Calm,-,N/A,,Clear,0,2012-11-07 02:35:00
8:55 PM,50.0,37.4,62,30.07,10.0,SW,4.6,-,N/A,,Clear,230,2012-11-07 02:55:00
9:15 PM,46.4,37.4,71,30.08,10.0,Calm,Calm,-,N/A,,Clear,0,2012-11-07 03:15:00
9:35 PM,46.4,37.4,71,30.08,10.0,Calm,Calm,-,N/A,,Clear,0,2012-11-07 03:35:00
9:55 PM,44.6,37.4,76,30.09,10.0,Calm,Calm,-,N/A,,Clear,0,2012-11-07 03:55:00
10:15 PM,46.4,37.4,71,30.09,10.0,Calm,Calm,-,N/A,,Clear,0,2012-11-07 04:15:00
10:35 PM,44.6,37.4,76,30.10,10.0,Calm,Calm,-,N/A,,Clear,0,2012-11-07 04:35:00
10:55 PM,46.4,35.6,66,30.09,10.0,Calm,Calm,-,N/A,,Clear,0,2012-11-07 04:55:00
11:15 PM,42.8,35.6,76,30.10,10.0,Calm,Calm,-,N/A,,Clear,0,2012-11-07 05:15:00
11:35 PM,42.8,35.6,76,30.10,10.0,NW,3.5,-,N/A,,Clear,310,2012-11-07 05:35:00
11:55 PM,41.0,37.4,87,30.10,7.0,NNW,4.6,-,N/A,,Clear,330,2012-11-07 05:55:00